Rechercher aéroport 
image banner adimage banner adimage banner ad
image banner ad

36CL - Tri-City Hospital

Situé à Oceanside, United States

ICAO - 36CL, IATA -

Données fournies par Airmate  

Information générale

Coordonnées: N33°11'7" W117°17'28"
Élévation : 260 feet MSL.
Variation magnétique : 13° East
Voir autres Aéroports à California

Données opérationnelles

Special qualification required
Heure actuelle UTC:
Heure actuelle locale:
Météo à : KCRQ - Mc Clellan-Palomar ( 6 km )
METAR: KCRQ 251353Z AUTO 20003KT 8SM OVC010 19/17 A2998 RMK AO2 SLP148 T01890167
TAF: KCRQ 251141Z 2512/2612 VRB04KT P6SM OVC011 FM252000 25007KT P6SM SCT012 OVC120 TEMPO 2520/2524 BKN010 FM260000 VRB05KT P6SM VCSH BKN012 OVC120 FM260600 VRB04KT P6SM -SHRA BKN007 OVC100
Voir NOTAMs / SUP AIP / TFR affectant cet aéroport [VIEW]
Fréquences de communication: [VIEW]

Pistes:

Coordonnées de l'aéroport

Adresse: Oceanside United States

Vue satellite de 36CL